Time;durP1;ratioP1;P1;durP2;ratioP2;P2;SDS_P1;SDS_P2;PMS_P1;PMS_P2;Temp;Humidity;BMP_temperature;BMP_pressure;BME280_temperature;BME280_humidity;BME280_pressure;Samples;Min_cycle;Max_cycle;Signal;HPM_P1;HPM_P2
2021/06/18 00:02:18;;;;;;;11.68;5.30;;;17.90;99.90;;;;;;4431046;28;656490;-71
2021/06/18 00:05:06;;;;;;;9.17;5.50;;;17.90;99.90;;;;;;4453080;28;658265;-72
2021/06/18 00:07:54;;;;;;;10.00;5.60;;;17.80;99.90;;;;;;4429339;28;656083;-71
2021/06/18 00:10:42;;;;;;;9.53;6.13;;;17.80;99.90;;;;;;4448758;28;657936;-71
2021/06/18 00:13:29;;;;;;;9.67;5.47;;;17.80;99.90;;;;;;4431919;28;657478;-71
2021/06/18 00:16:18;;;;;;;15.27;6.07;;;17.80;99.90;;;;;;4453009;28;657241;-71
2021/06/18 00:19:06;;;;;;;12.77;5.90;;;17.80;99.90;;;;;;4423988;28;658044;-71
2021/06/18 00:21:54;;;;;;;8.67;5.60;;;17.80;99.90;;;;;;4426392;28;657368;-71
2021/06/18 00:24:41;;;;;;;13.03;6.13;;;17.70;99.90;;;;;;4452892;28;657041;-71
2021/06/18 00:27:29;;;;;;;11.93;5.63;;;17.70;99.90;;;;;;4430190;28;657852;-71
2021/06/18 00:30:18;;;;;;;9.37;5.37;;;17.70;99.90;;;;;;4450856;28;658227;-72
2021/06/18 00:33:07;;;;;;;12.80;5.40;;;17.60;99.90;;;;;;4430072;28;657537;-71
2021/06/18 00:35:55;;;;;;;11.80;5.53;;;17.50;99.90;;;;;;4426508;28;658138;-71
2021/06/18 00:38:42;;;;;;;14.03;6.10;;;17.50;99.90;;;;;;4434969;28;657536;-71
2021/06/18 00:41:30;;;;;;;8.67;5.37;;;17.50;99.90;;;;;;4426458;28;658167;-71
2021/06/18 00:44:18;;;;;;;9.43;5.53;;;17.40;99.90;;;;;;4438779;28;656778;-71
2021/06/18 00:47:05;;;;;;;9.97;5.80;;;17.30;99.90;;;;;;4451843;28;657908;-71
2021/06/18 00:49:55;;;;;;;9.53;5.83;;;17.20;99.90;;;;;;4421660;28;656719;-71
2021/06/18 00:52:42;;;;;;;12.30;5.77;;;17.20;99.90;;;;;;4436460;28;656485;-71
2021/06/18 00:55:30;;;;;;;10.73;5.77;;;17.10;99.90;;;;;;4420975;28;659095;-71
2021/06/18 00:58:18;;;;;;;9.43;5.93;;;17.10;99.90;;;;;;4449502;28;657315;-71
2021/06/18 01:01:05;;;;;;;14.37;6.27;;;17.00;99.90;;;;;;4451961;28;658068;-71
2021/06/18 01:03:53;;;;;;;13.40;6.00;;;17.00;99.90;;;;;;4423630;28;657856;-71
2021/06/18 01:06:42;;;;;;;12.47;6.10;;;16.90;99.90;;;;;;4450366;28;658605;-71
2021/06/18 01:09:32;;;;;;;8.50;5.33;;;16.80;99.90;;;;;;4420183;28;658892;-71
2021/06/18 01:12:21;;;;;;;11.95;6.05;;;16.80;99.90;;;;;;4432928;28;656801;-71
2021/06/18 01:15:14;;;;;;;12.53;5.80;;;16.70;99.90;;;;;;4414281;28;657185;-71
2021/06/18 01:18:02;;;;;;;8.20;5.37;;;16.70;99.90;;;;;;4418342;28;657958;-71
2021/06/18 01:21:11;;;;;;;8.83;5.80;;;16.60;99.90;;;;;;4420550;28;657108;-71
2021/06/18 01:24:20;;;;;;;14.77;6.00;;;16.60;99.90;;;;;;4404256;28;657588;-72
2021/06/18 01:27:23;;;;;;;9.83;6.03;;;16.60;99.90;;;;;;4423432;28;657626;-71
2021/06/18 01:30:13;;;;;;;14.00;6.10;;;16.60;99.90;;;;;;4407696;28;656826;-71
2021/06/18 01:33:03;;;;;;;9.83;5.80;;;16.50;99.90;;;;;;4424718;28;658479;-71
2021/06/18 01:35:51;;;;;;;12.57;6.17;;;16.50;99.90;;;;;;4424387;28;657221;-71
2021/06/18 01:38:40;;;;;;;11.73;5.63;;;16.40;99.90;;;;;;4414308;28;658437;-71
2021/06/18 01:41:29;;;;;;;17.40;6.23;;;16.30;99.90;;;;;;4425960;28;657674;-71
2021/06/18 01:44:17;;;;;;;9.70;5.77;;;16.20;99.90;;;;;;4450135;28;657645;-71
2021/06/18 01:47:07;;;;;;;14.20;5.90;;;16.20;99.90;;;;;;4419638;28;656794;-71
2021/06/18 01:49:55;;;;;;;10.60;5.70;;;16.10;99.90;;;;;;4411040;28;659229;-71
2021/06/18 01:52:45;;;;;;;9.60;6.10;;;16.20;99.90;;;;;;4439457;28;657158;-71
2021/06/18 01:55:33;;;;;;;14.43;6.00;;;16.20;99.90;;;;;;4440049;28;656197;-71
2021/06/18 01:58:20;;;;;;;10.40;5.80;;;16.20;99.90;;;;;;4418065;28;658816;-71
2021/06/18 02:01:08;;;;;;;8.37;5.77;;;16.20;99.90;;;;;;4421751;28;657650;-71
2021/06/18 02:03:57;;;;;;;10.33;5.93;;;16.20;99.90;;;;;;4444497;28;657426;-71
2021/06/18 02:06:44;;;;;;;12.53;6.30;;;16.20;99.90;;;;;;4416879;28;658764;-71
2021/06/18 02:09:32;;;;;;;11.13;5.97;;;16.20;99.90;;;;;;4442066;28;658152;-71
2021/06/18 02:12:20;;;;;;;10.30;6.27;;;16.20;99.90;;;;;;4417848;28;658628;-71
2021/06/18 02:15:09;;;;;;;10.97;6.03;;;16.20;99.90;;;;;;4414385;28;657805;-71
2021/06/18 02:17:57;;;;;;;10.63;5.83;;;16.10;99.90;;;;;;4433099;28;657725;-72
2021/06/18 02:20:46;;;;;;;12.73;6.40;;;16.10;99.90;;;;;;4427164;28;657973;-71
2021/06/18 02:23:34;;;;;;;10.30;6.13;;;16.10;99.90;;;;;;4403367;28;658414;-71
2021/06/18 02:26:25;;;;;;;11.63;5.83;;;16.10;99.90;;;;;;4447257;28;658027;-71
2021/06/18 02:29:13;;;;;;;10.60;6.40;;;16.10;99.90;;;;;;4404061;28;657673;-71
2021/06/18 02:32:02;;;;;;;14.43;6.40;;;16.20;99.90;;;;;;4436010;28;657786;-71
2021/06/18 02:34:50;;;;;;;9.97;5.90;;;16.10;99.90;;;;;;4416642;28;657872;-71
2021/06/18 02:37:40;;;;;;;10.70;5.93;;;16.20;99.90;;;;;;4416119;28;656489;-71
2021/06/18 02:40:28;;;;;;;8.03;5.77;;;16.20;99.90;;;;;;4418741;28;657542;-71
2021/06/18 02:43:15;;;;;;;8.70;5.67;;;16.20;99.90;;;;;;4453300;28;657625;-71
2021/06/18 02:46:03;;;;;;;10.23;5.53;;;16.10;99.90;;;;;;4418117;28;656480;-71
2021/06/18 02:48:51;;;;;;;9.33;5.50;;;16.10;99.90;;;;;;4433499;28;658601;-71
2021/06/18 02:51:41;;;;;;;10.63;6.10;;;16.00;99.90;;;;;;4409292;28;656600;-71
2021/06/18 02:54:32;;;;;;;10.80;5.80;;;16.00;99.90;;;;;;4414354;28;657706;-71
2021/06/18 02:57:21;;;;;;;10.47;5.70;;;16.00;99.90;;;;;;4422176;28;658578;-71
2021/06/18 03:00:10;;;;;;;10.23;5.73;;;16.00;99.90;;;;;;4405599;28;657337;-71
2021/06/18 03:02:59;;;;;;;9.40;6.27;;;16.00;99.90;;;;;;4408268;28;657520;-71
2021/06/18 03:05:47;;;;;;;8.97;6.20;;;16.00;99.90;;;;;;4448639;28;656818;-71
2021/06/18 03:08:37;;;;;;;11.03;5.73;;;16.00;99.90;;;;;;4423600;28;657313;-71
2021/06/18 03:11:29;;;;;;;10.47;5.77;;;16.00;99.90;;;;;;4423184;28;658875;-71
2021/06/18 03:14:18;;;;;;;11.87;5.90;;;16.00;99.90;;;;;;4412437;28;657372;-71
2021/06/18 03:17:09;;;;;;;10.50;6.40;;;16.00;99.90;;;;;;4409346;28;658895;-71
2021/06/18 03:19:58;;;;;;;10.90;5.77;;;16.10;99.90;;;;;;4409459;28;658131;-71
2021/06/18 03:22:46;;;;;;;8.63;5.40;;;16.10;99.90;;;;;;4411188;28;658016;-71
2021/06/18 03:25:35;;;;;;;14.40;5.70;;;16.20;99.90;;;;;;4430427;28;656574;-71
2021/06/18 03:28:25;;;;;;;10.83;6.37;;;16.30;99.90;;;;;;4443639;28;658123;-71
2021/06/18 03:31:13;;;;;;;14.10;6.03;;;16.40;99.90;;;;;;4428164;28;658376;-71
2021/06/18 03:34:00;;;;;;;10.87;6.20;;;16.40;99.90;;;;;;4433333;28;658726;-71
2021/06/18 03:36:48;;;;;;;9.23;5.80;;;16.50;99.90;;;;;;4421476;28;658175;-71
2021/06/18 03:39:36;;;;;;;11.10;6.20;;;16.60;99.90;;;;;;4440429;28;657440;-71
2021/06/18 03:42:23;;;;;;;15.27;6.40;;;16.60;99.90;;;;;;4421389;28;657972;-71
2021/06/18 03:45:13;;;;;;;10.90;5.80;;;16.70;99.90;;;;;;4426598;28;658855;-71
2021/06/18 03:48:00;;;;;;;12.87;6.13;;;16.70;99.90;;;;;;4409042;28;658412;-71
2021/06/18 03:50:48;;;;;;;9.73;5.83;;;16.90;99.90;;;;;;4417236;28;657688;-71
2021/06/18 03:53:36;;;;;;;9.57;6.17;;;17.00;99.90;;;;;;4422716;28;658514;-71
2021/06/18 03:56:23;;;;;;;10.93;6.10;;;17.10;99.90;;;;;;4414003;28;656970;-71
2021/06/18 03:59:11;;;;;;;20.53;6.57;;;17.20;99.90;;;;;;4438897;28;658047;-71
2021/06/18 04:02:00;;;;;;;10.83;5.93;;;17.30;99.90;;;;;;4412665;28;657426;-71
2021/06/18 04:04:48;;;;;;;12.57;6.43;;;17.40;99.90;;;;;;4417361;28;657930;-71
2021/06/18 04:07:35;;;;;;;11.30;6.60;;;17.50;99.90;;;;;;4432802;28;658480;-71
2021/06/18 04:10:23;;;;;;;12.23;6.10;;;17.60;99.90;;;;;;4416040;28;658029;-71
2021/06/18 04:13:11;;;;;;;11.70;5.90;;;17.60;99.90;;;;;;4429291;28;658171;-71
2021/06/18 04:15:58;;;;;;;11.67;6.30;;;17.70;99.90;;;;;;4413147;28;658214;-70
2021/06/18 04:18:48;;;;;;;13.57;6.37;;;17.70;99.90;;;;;;4432272;28;658672;-69
2021/06/18 04:21:37;;;;;;;10.47;6.13;;;17.90;99.90;;;;;;4422629;28;659268;-69
2021/06/18 04:24:25;;;;;;;10.13;6.07;;;18.00;99.90;;;;;;4421447;28;659157;-70
2021/06/18 04:27:13;;;;;;;12.33;6.13;;;18.10;99.90;;;;;;4444589;28;657844;-70
2021/06/18 04:30:01;;;;;;;10.23;6.07;;;18.20;99.90;;;;;;4436195;28;658625;-69
2021/06/18 04:32:49;;;;;;;9.20;6.20;;;18.30;99.90;;;;;;4412313;28;658107;-69
2021/06/18 04:35:38;;;;;;;13.23;6.50;;;18.50;99.90;;;;;;4433045;28;656824;-69
2021/06/18 04:38:25;;;;;;;9.80;6.17;;;18.60;99.90;;;;;;4394424;28;657926;-69
2021/06/18 04:41:13;;;;;;;12.33;6.20;;;18.70;99.90;;;;;;4423507;28;656563;-70
2021/06/18 04:44:01;;;;;;;8.87;5.53;;;18.90;99.90;;;;;;4447588;28;658805;-69
2021/06/18 04:46:49;;;;;;;9.97;6.20;;;19.00;99.90;;;;;;4418630;28;656954;-70
2021/06/18 04:49:37;;;;;;;11.13;5.90;;;19.20;99.90;;;;;;4441215;28;656895;-70
2021/06/18 04:52:26;;;;;;;11.53;6.13;;;19.30;99.90;;;;;;4408749;28;657476;-69
2021/06/18 04:55:15;;;;;;;11.67;6.00;;;19.50;99.90;;;;;;4412416;28;657524;-69
2021/06/18 04:58:03;;;;;;;11.32;5.68;;;19.60;99.90;;;;;;4412666;28;658044;-69
2021/06/18 05:00:51;;;;;;;7.23;5.97;;;19.70;99.90;;;;;;4433019;28;658267;-69
2021/06/18 05:03:38;;;;;;;7.93;6.03;;;19.90;99.90;;;;;;4417638;28;656350;-69
2021/06/18 05:06:26;;;;;;;7.93;5.90;;;20.00;99.90;;;;;;4438102;28;657002;-69
2021/06/18 05:09:15;;;;;;;11.20;5.83;;;20.10;99.90;;;;;;4424891;28;656740;-69
2021/06/18 05:12:03;;;;;;;10.20;6.33;;;20.30;99.90;;;;;;4444091;28;657185;-69
2021/06/18 05:14:51;;;;;;;8.07;6.00;;;20.40;99.90;;;;;;4437926;28;658331;-69
2021/06/18 05:17:38;;;;;;;10.43;5.73;;;20.50;99.90;;;;;;4417013;28;656886;-69
2021/06/18 05:20:26;;;;;;;9.23;5.20;;;20.60;99.90;;;;;;4435817;28;659599;-69
2021/06/18 05:23:14;;;;;;;8.30;5.77;;;20.70;99.90;;;;;;4423963;28;656803;-69
2021/06/18 05:26:03;;;;;;;8.67;5.77;;;20.80;99.90;;;;;;4441911;28;657095;-69
2021/06/18 05:28:51;;;;;;;10.07;6.33;;;21.00;99.90;;;;;;4415801;28;657038;-69
2021/06/18 05:31:38;;;;;;;13.63;6.73;;;21.10;99.90;;;;;;4415279;28;657299;-69
2021/06/18 05:34:26;;;;;;;10.03;6.30;;;21.20;99.90;;;;;;4438310;28;658447;-68
2021/06/18 05:37:14;;;;;;;11.37;6.40;;;21.40;99.90;;;;;;4430287;28;657574;-69
2021/06/18 05:40:02;;;;;;;9.73;6.60;;;21.50;99.90;;;;;;4445483;28;657966;-69
2021/06/18 05:42:51;;;;;;;11.60;6.13;;;21.70;99.90;;;;;;4430410;28;657633;-69
2021/06/18 05:45:39;;;;;;;10.97;6.57;;;21.80;99.90;;;;;;4418278;28;657619;-69
2021/06/18 05:48:27;;;;;;;9.73;5.83;;;21.90;99.90;;;;;;4433390;28;658506;-69
2021/06/18 05:51:15;;;;;;;10.07;5.90;;;22.00;99.90;;;;;;4413515;28;658227;-69
2021/06/18 05:54:02;;;;;;;10.53;5.90;;;22.10;99.90;;;;;;4437748;28;657941;-69
2021/06/18 05:56:50;;;;;;;9.40;5.50;;;22.30;99.90;;;;;;4412250;28;658968;-69
2021/06/18 05:59:39;;;;;;;10.03;5.47;;;22.30;99.90;;;;;;4441150;28;656474;-69
2021/06/18 06:02:27;;;;;;;8.63;5.77;;;22.50;99.90;;;;;;4434948;28;658331;-69
2021/06/18 06:05:14;;;;;;;9.97;5.93;;;22.60;99.90;;;;;;4415815;28;656427;-69
2021/06/18 06:08:02;;;;;;;8.73;5.93;;;22.70;99.90;;;;;;4437767;28;657199;-69
2021/06/18 06:10:49;;;;;;;8.27;5.93;;;22.70;99.90;;;;;;4413173;28;657866;-69
2021/06/18 06:13:38;;;;;;;8.93;6.27;;;22.70;99.90;;;;;;4440078;28;656508;-69
2021/06/18 06:16:27;;;;;;;9.20;5.67;;;22.80;99.90;;;;;;4396025;28;658002;-69
2021/06/18 06:19:14;;;;;;;9.90;6.00;;;22.90;99.90;;;;;;4421279;28;657576;-68
2021/06/18 06:22:02;;;;;;;12.07;6.13;;;23.10;99.90;;;;;;4450646;28;656794;-69
2021/06/18 06:24:50;;;;;;;9.23;5.87;;;23.10;99.90;;;;;;4408647;28;658906;-69
2021/06/18 06:27:38;;;;;;;9.37;5.83;;;23.20;99.90;;;;;;4416221;28;656514;-69
2021/06/18 06:30:26;;;;;;;9.67;5.73;;;23.50;99.90;;;;;;4454256;28;657364;-69
2021/06/18 06:33:15;;;;;;;9.17;5.90;;;23.60;99.90;;;;;;4413434;28;656665;-69
2021/06/18 06:36:03;;;;;;;9.67;5.77;;;23.70;99.90;;;;;;4424908;28;657248;-69
2021/06/18 06:38:51;;;;;;;8.83;5.70;;;23.80;99.90;;;;;;4444779;28;656286;-69
2021/06/18 06:41:38;;;;;;;8.90;5.80;;;23.80;99.90;;;;;;4414902;28;656912;-70
2021/06/18 06:44:26;;;;;;;8.70;5.30;;;23.90;99.90;;;;;;4437606;28;657728;-70
2021/06/18 06:47:14;;;;;;;15.43;7.13;;;24.00;99.90;;;;;;4413209;28;656525;-69
2021/06/18 06:50:03;;;;;;;10.07;5.93;;;24.10;99.90;;;;;;4446705;28;657747;-69
2021/06/18 06:52:50;;;;;;;7.30;5.40;;;24.10;99.90;;;;;;4410716;28;658030;-69
2021/06/18 06:55:38;;;;;;;7.37;5.70;;;24.10;99.90;;;;;;4430074;28;657000;-69
2021/06/18 06:58:26;;;;;;;8.13;5.87;;;24.20;99.90;;;;;;4452168;28;656996;-69
2021/06/18 07:01:13;;;;;;;9.23;6.10;;;24.40;99.90;;;;;;4407927;28;656679;-69
2021/06/18 07:04:02;;;;;;;9.70;5.63;;;24.50;99.90;;;;;;4433303;28;657319;-69
2021/06/18 07:06:51;;;;;;;8.03;6.00;;;24.60;99.90;;;;;;4403347;28;657677;-69
2021/06/18 07:09:39;;;;;;;9.93;5.90;;;24.70;99.90;;;;;;4407874;28;657142;-70
2021/06/18 07:12:26;;;;;;;11.50;6.30;;;24.90;99.90;;;;;;4448589;28;656583;-69
2021/06/18 07:15:15;;;;;;;10.53;5.73;;;25.00;99.90;;;;;;4414730;28;658003;-70
2021/06/18 07:18:02;;;;;;;9.50;6.43;;;25.20;99.90;;;;;;4448511;28;657960;-70
2021/06/18 07:20:51;;;;;;;7.75;6.15;;;25.30;99.90;;;;;;4424319;28;658687;-70
2021/06/18 07:23:40;;;;;;;13.20;5.87;;;25.40;99.90;;;;;;4409994;28;657039;-70
2021/06/18 07:26:28;;;;;;;11.10;6.20;;;25.60;99.90;;;;;;4430303;28;658100;-69
2021/06/18 07:29:16;;;;;;;8.45;5.80;;;25.60;99.90;;;;;;4440024;28;657963;-70
2021/06/18 07:32:04;;;;;;;9.85;5.82;;;25.80;99.90;;;;;;4417635;28;656986;-69
2021/06/18 07:34:52;;;;;;;10.88;5.72;;;25.80;99.90;;;;;;4436272;28;656600;-70
2021/06/18 07:37:40;;;;;;;10.40;5.82;;;25.90;99.90;;;;;;4414943;28;658450;-69
2021/06/18 07:40:29;;;;;;;8.10;5.68;;;26.00;99.90;;;;;;4406901;28;657402;-69
2021/06/18 07:43:17;;;;;;;9.88;5.97;;;26.20;99.90;;;;;;4433416;28;657093;-69
2021/06/18 07:46:05;;;;;;;12.65;6.28;;;26.20;99.90;;;;;;4421287;28;657755;-69
2021/06/18 07:48:53;;;;;;;12.60;5.75;;;26.20;99.90;;;;;;4448748;28;657471;-70
2021/06/18 07:51:40;;;;;;;6.50;5.47;;;26.50;99.90;;;;;;4440275;28;658409;-69
2021/06/18 07:54:28;;;;;;;11.48;6.35;;;26.60;99.90;;;;;;4404981;28;657936;-69
2021/06/18 07:57:17;;;;;;;9.73;5.72;;;26.80;99.90;;;;;;4432622;28;658273;-70
2021/06/18 08:03:47;;;;;;;9.18;5.75;;;27.10;99.90;;;;;;4414254;28;656827;-70
2021/06/18 08:06:35;;;;;;;8.32;5.38;;;27.10;99.90;;;;;;4408520;28;657189;-69
2021/06/18 08:09:23;;;;;;;9.18;5.70;;;27.30;99.90;;;;;;4417013;28;656901;-69
2021/06/18 08:12:10;;;;;;;9.55;5.72;;;27.50;99.90;;;;;;4434701;28;657829;-69
2021/06/18 08:14:59;;;;;;;9.68;5.28;;;27.70;99.90;;;;;;4428674;28;656547;-69
2021/06/18 08:17:47;;;;;;;9.57;5.97;;;28.00;99.90;;;;;;4430907;28;656872;-69
2021/06/18 08:20:35;;;;;;;7.60;5.35;;;28.10;99.90;;;;;;4416987;28;658439;-68
2021/06/18 08:23:22;;;;;;;11.23;5.45;;;28.30;99.90;;;;;;4448820;28;656610;-69
2021/06/18 08:26:10;;;;;;;7.28;5.20;;;28.40;99.90;;;;;;4421180;28;658393;-69
2021/06/18 08:28:58;;;;;;;10.75;5.35;;;28.60;99.90;;;;;;4424093;28;657244;-69
2021/06/18 08:31:47;;;;;;;9.73;5.25;;;28.80;99.90;;;;;;4448784;28;658110;-69
2021/06/18 08:34:34;;;;;;;14.02;5.45;;;29.00;99.90;;;;;;4417400;28;656587;-68
2021/06/18 08:37:22;;;;;;;8.98;5.18;;;29.20;99.70;;;;;;4433800;28;657756;-70
2021/06/18 08:40:11;;;;;;;8.20;5.18;;;29.20;97.10;;;;;;4406618;28;657491;-70
2021/06/18 08:42:58;;;;;;;13.45;5.43;;;29.10;95.80;;;;;;4418074;28;656348;-69
2021/06/18 08:45:46;;;;;;;8.35;5.45;;;29.20;96.80;;;;;;4444781;28;656971;-70
2021/06/18 08:48:35;;;;;;;10.73;5.80;;;29.30;95.30;;;;;;4424722;28;656250;-69
2021/06/18 08:51:23;;;;;;;13.13;5.80;;;29.30;96.10;;;;;;4441436;28;657360;-69
2021/06/18 08:54:12;;;;;;;10.00;5.18;;;29.60;97.00;;;;;;4438576;28;658708;-70
2021/06/18 08:56:59;;;;;;;9.68;5.25;;;29.90;95.60;;;;;;4411589;28;658668;-69
2021/06/18 08:59:47;;;;;;;8.10;5.10;;;29.90;93.20;;;;;;4436528;28;656502;-70
2021/06/18 09:02:34;;;;;;;6.35;4.78;;;30.10;93.20;;;;;;4420998;28;658088;-70
2021/06/18 09:05:24;;;;;;;8.70;4.68;;;30.30;91.50;;;;;;4451660;28;656984;-70
2021/06/18 09:08:11;;;;;;;7.03;4.50;;;30.30;91.30;;;;;;4432365;28;657684;-70
2021/06/18 09:10:59;;;;;;;7.22;4.50;;;30.40;89.90;;;;;;4420137;28;656955;-70
2021/06/18 09:13:46;;;;;;;11.52;4.95;;;30.50;87.30;;;;;;4436985;28;657630;-70
2021/06/18 09:16:35;;;;;;;8.77;4.88;;;30.60;82.40;;;;;;4415989;28;657502;-70
2021/06/18 09:19:25;;;;;;;9.90;5.15;;;30.60;82.50;;;;;;4435089;28;656272;-70
2021/06/18 09:22:15;;;;;;;6.05;4.85;;;30.80;83.10;;;;;;4407757;28;656561;-70
2021/06/18 09:25:05;;;;;;;8.38;4.25;;;31.00;81.70;;;;;;4433038;28;657090;-69
2021/06/18 09:27:53;;;;;;;8.30;4.18;;;30.80;82.60;;;;;;4421583;28;656825;-70
2021/06/18 09:30:41;;;;;;;9.57;4.55;;;30.40;75.20;;;;;;4427236;28;656400;-70
2021/06/18 09:33:28;;;;;;;9.93;4.50;;;30.40;77.10;;;;;;4422535;28;656963;-70
2021/06/18 09:36:16;;;;;;;7.20;5.00;;;30.30;76.90;;;;;;4438095;28;657178;-68
2021/06/18 09:39:06;;;;;;;7.82;4.60;;;30.40;80.40;;;;;;4417503;28;656510;-69
2021/06/18 09:41:54;;;;;;;9.32;4.68;;;30.60;81.20;;;;;;4427246;28;656727;-69
2021/06/18 09:44:41;;;;;;;7.10;4.93;;;30.70;79.40;;;;;;4437148;28;656299;-69
2021/06/18 09:47:29;;;;;;;6.25;4.95;;;31.10;77.80;;;;;;4423715;28;657282;-69
2021/06/18 09:50:27;;;;;;;9.70;4.65;;;31.50;74.80;;;;;;4434172;28;656809;-69
2021/06/18 09:53:15;;;;;;;8.00;4.25;;;31.80;71.30;;;;;;4420852;28;656438;-70
2021/06/18 09:56:06;;;;;;;5.53;4.50;;;31.90;73.30;;;;;;4424274;28;656399;-69
2021/06/18 09:58:54;;;;;;;4.60;3.92;;;31.90;70.80;;;;;;4430559;28;656666;-70
2021/06/18 10:01:41;;;;;;;6.80;4.32;;;31.80;72.60;;;;;;4445159;28;656474;-70
2021/06/18 10:04:32;;;;;;;5.07;4.07;;;32.00;70.10;;;;;;4411799;28;656863;-70
2021/06/18 10:07:27;;;;;;;8.50;4.30;;;32.30;69.70;;;;;;4408937;28;657702;-69
2021/06/18 10:10:15;;;;;;;4.68;4.15;;;32.60;68.80;;;;;;4390127;28;656774;-69
2021/06/18 10:13:04;;;;;;;8.80;4.38;;;32.40;67.20;;;;;;4414404;28;656370;-70
2021/06/18 10:15:52;;;;;;;12.30;4.63;;;32.60;69.30;;;;;;4422640;28;656614;-68
2021/06/18 10:18:39;;;;;;;6.55;4.32;;;32.70;67.80;;;;;;4430598;28;657463;-68
2021/06/18 10:21:26;;;;;;;8.55;4.68;;;32.60;64.20;;;;;;4442304;28;656878;-68
2021/06/18 10:24:14;;;;;;;6.63;4.30;;;32.40;66.50;;;;;;4424956;28;656744;-69
2021/06/18 10:27:01;;;;;;;6.18;4.45;;;32.40;64.70;;;;;;4430482;28;656928;-70
2021/06/18 10:29:50;;;;;;;7.50;4.50;;;32.50;66.70;;;;;;4405486;28;656516;-69
2021/06/18 10:32:38;;;;;;;6.88;4.57;;;32.70;65.70;;;;;;4395782;28;656518;-69
2021/06/18 10:35:44;;;;;;;8.20;4.30;;;32.80;60.50;;;;;;4416046;28;657509;-70
2021/06/18 10:38:33;;;;;;;10.60;4.30;;;33.00;65.80;;;;;;4409339;28;656693;-69
2021/06/18 10:41:27;;;;;;;7.57;4.15;;;33.10;64.60;;;;;;4389593;28;658939;-69
2021/06/18 10:44:29;;;;;;;11.23;4.00;;;33.10;59.80;;;;;;4372494;28;656718;-69
2021/06/18 10:48:02;;;;;;;6.55;4.13;;;33.10;59.70;;;;;;4384316;28;657624;-69
2021/06/18 10:50:51;;;;;;;7.97;4.90;;;33.50;60.10;;;;;;4327848;28;656954;-69
2021/06/18 10:53:51;;;;;;;5.15;4.30;;;33.70;61.30;;;;;;4354395;28;657116;-69
2021/06/18 10:56:55;;;;;;;7.40;4.83;;;33.90;59.10;;;;;;4332650;28;656493;-69
2021/06/18 10:59:45;;;;;;;6.53;4.40;;;34.20;58.70;;;;;;4331159;28;656538;-69
2021/06/18 11:02:40;;;;;;;7.90;4.65;;;34.20;56.80;;;;;;4345718;28;657062;-69
2021/06/18 11:05:36;;;;;;;7.73;4.70;;;33.80;56.80;;;;;;4322605;28;656597;-68
2021/06/18 11:08:27;;;;;;;12.57;4.43;;;33.60;58.80;;;;;;4324087;28;657245;-69
2021/06/18 11:11:27;;;;;;;9.45;4.70;;;33.80;59.30;;;;;;4346938;28;658042;-70
2021/06/18 11:14:15;;;;;;;10.32;4.40;;;34.40;57.00;;;;;;4339621;28;656744;-69
2021/06/18 11:17:03;;;;;;;6.63;4.35;;;34.40;55.40;;;;;;4352938;28;657719;-69
2021/06/18 11:19:51;;;;;;;8.27;4.20;;;34.30;56.80;;;;;;4363915;28;656712;-69
2021/06/18 11:22:40;;;;;;;9.07;4.32;;;34.40;55.60;;;;;;4360772;28;656493;-70
2021/06/18 11:25:51;;;;;;;4.57;4.00;;;34.80;54.50;;;;;;4365881;28;656349;-69
2021/06/18 11:28:40;;;;;;;10.20;4.30;;;35.00;54.70;;;;;;4319343;28;657660;-69
2021/06/18 11:31:41;;;;;;;9.95;4.30;;;35.20;53.40;;;;;;4387197;28;657769;-69
2021/06/18 11:34:29;;;;;;;7.20;4.40;;;35.00;51.60;;;;;;4402758;28;656802;-69
2021/06/18 11:37:32;;;;;;;7.60;3.92;;;34.60;51.00;;;;;;4434574;28;656398;-69
2021/06/18 11:40:22;;;;;;;4.95;3.90;;;34.70;49.90;;;;;;4401878;28;657568;-69
2021/06/18 11:43:11;;;;;;;6.13;3.53;;;34.20;48.80;;;;;;4430340;28;657970;-69
2021/06/18 11:45:59;;;;;;;12.00;3.85;;;34.40;49.80;;;;;;4421802;28;656674;-68
2021/06/18 11:48:46;;;;;;;5.60;3.40;;;34.50;48.50;;;;;;4447223;28;657687;-69
2021/06/18 11:51:34;;;;;;;4.70;3.80;;;34.70;50.20;;;;;;4427273;28;659960;-69
2021/06/18 11:54:23;;;;;;;9.55;3.50;;;34.80;46.90;;;;;;4447842;28;655949;-69
2021/06/18 11:57:22;;;;;;;6.03;4.20;;;34.50;46.30;;;;;;4426796;28;657046;-69
2021/06/18 12:00:12;;;;;;;5.47;3.80;;;34.40;47.70;;;;;;4400971;28;657154;-69
2021/06/18 12:03:00;;;;;;;11.18;3.95;;;34.60;48.00;;;;;;4415657;28;657167;-69
2021/06/18 12:05:48;;;;;;;5.65;3.47;;;34.30;47.60;;;;;;4441850;28;657491;-69
2021/06/18 12:08:35;;;;;;;6.60;3.90;;;34.30;48.60;;;;;;4454906;28;657662;-69
2021/06/18 12:11:23;;;;;;;5.07;3.95;;;34.60;49.00;;;;;;4419414;28;656736;-69
2021/06/18 12:14:11;;;;;;;9.25;4.10;;;34.50;47.30;;;;;;4454003;28;657305;-69
2021/06/18 12:17:00;;;;;;;6.43;4.22;;;34.70;48.90;;;;;;4430207;28;656701;-69
2021/06/18 12:19:49;;;;;;;6.47;4.20;;;35.20;48.70;;;;;;4432734;28;656710;-69
2021/06/18 12:22:37;;;;;;;8.40;3.90;;;35.40;46.90;;;;;;4453357;28;656915;-69
2021/06/18 12:25:27;;;;;;;5.40;3.97;;;35.70;48.20;;;;;;4426825;28;657722;-69
2021/06/18 12:28:16;;;;;;;4.93;3.70;;;35.50;46.80;;;;;;4428990;28;657452;-69
2021/06/18 12:31:05;;;;;;;10.85;4.47;;;35.20;46.30;;;;;;4414788;28;656663;-68
2021/06/18 12:33:54;;;;;;;6.63;4.40;;;34.90;46.00;;;;;;4446692;28;657248;-69
2021/06/18 12:36:41;;;;;;;7.35;4.35;;;34.90;46.20;;;;;;4420715;28;656216;-69
2021/06/18 12:39:29;;;;;;;6.95;4.18;;;35.10;46.90;;;;;;4417122;28;656423;-69
2021/06/18 12:42:24;;;;;;;6.15;4.30;;;35.20;47.90;;;;;;4435950;28;656548;-68
2021/06/18 12:45:14;;;;;;;8.50;4.53;;;35.00;47.80;;;;;;4413332;28;657200;-69
2021/06/18 12:48:11;;;;;;;6.63;4.22;;;34.80;47.40;;;;;;4413001;28;656729;-68
2021/06/18 12:51:01;;;;;;;9.80;4.37;;;34.60;48.30;;;;;;4390359;28;658146;-68
2021/06/18 12:53:49;;;;;;;6.47;4.22;;;34.70;50.10;;;;;;4415265;28;656207;-68
2021/06/18 12:56:40;;;;;;;10.93;4.22;;;34.60;48.10;;;;;;4436035;28;656810;-69
2021/06/18 12:59:36;;;;;;;6.13;4.15;;;34.80;48.40;;;;;;4393763;28;657774;-69
2021/06/18 13:02:34;;;;;;;7.22;4.15;;;34.80;46.80;;;;;;4403417;28;657195;-68
2021/06/18 13:05:22;;;;;;;6.47;3.87;;;35.10;48.00;;;;;;4430118;28;656647;-68
2021/06/18 13:08:18;;;;;;;5.93;4.15;;;35.10;47.70;;;;;;4433942;28;657452;-68
2021/06/18 13:11:06;;;;;;;7.47;4.15;;;35.60;47.10;;;;;;4432886;28;656798;-68
2021/06/18 13:14:10;;;;;;;7.22;4.47;;;35.30;47.00;;;;;;4428093;28;656300;-68
2021/06/18 13:17:05;;;;;;;6.55;4.18;;;35.00;47.30;;;;;;4412246;28;656633;-68
2021/06/18 13:19:53;;;;;;;7.27;4.30;;;35.00;47.20;;;;;;4428707;28;656618;-68
2021/06/18 13:22:40;;;;;;;5.75;4.45;;;34.80;47.40;;;;;;4428294;28;656864;-68
2021/06/18 13:25:31;;;;;;;5.85;3.88;;;34.60;46.50;;;;;;4433115;28;656239;-68
2021/06/18 13:28:40;;;;;;;4.85;3.70;;;34.70;47.10;;;;;;4428756;28;657006;-69
2021/06/18 13:31:34;;;;;;;5.43;4.00;;;35.40;45.50;;;;;;4408863;28;656577;-68
2021/06/18 13:34:24;;;;;;;10.93;4.47;;;35.70;46.60;;;;;;4422100;28;656749;-68
2021/06/18 13:37:13;;;;;;;10.67;4.00;;;35.50;46.90;;;;;;4418512;28;658827;-69
2021/06/18 13:40:34;;;;;;;9.70;4.25;;;35.40;45.50;;;;;;4410750;28;658825;-68
2021/06/18 13:43:21;;;;;;;8.05;3.70;;;35.30;44.30;;;;;;4417342;28;656703;-68
2021/06/18 13:46:09;;;;;;;6.15;3.78;;;35.50;45.60;;;;;;4423010;28;656552;-69
2021/06/18 13:48:56;;;;;;;6.05;4.10;;;35.40;45.50;;;;;;4446006;28;656776;-69
2021/06/18 13:51:44;;;;;;;6.53;3.90;;;35.70;45.10;;;;;;4420509;28;656982;-68
2021/06/18 13:54:32;;;;;;;10.23;3.67;;;35.40;44.40;;;;;;4437820;28;656244;-68
2021/06/18 13:57:21;;;;;;;6.90;3.97;;;35.40;44.50;;;;;;4418691;28;658325;-68
2021/06/18 14:00:09;;;;;;;11.55;3.97;;;35.20;44.00;;;;;;4414678;28;656276;-68
2021/06/18 14:02:58;;;;;;;9.48;3.90;;;35.60;46.00;;;;;;4430599;28;657555;-67
2021/06/18 14:05:45;;;;;;;5.28;3.80;;;35.30;44.70;;;;;;4421409;28;657941;-68
2021/06/18 14:08:33;;;;;;;5.18;3.72;;;35.10;46.40;;;;;;4425671;28;656956;-68
2021/06/18 14:11:22;;;;;;;6.63;3.70;;;35.20;45.30;;;;;;4434836;28;657245;-68
2021/06/18 14:14:11;;;;;;;4.60;3.80;;;35.50;44.90;;;;;;4418239;28;657475;-68
2021/06/18 14:16:59;;;;;;;5.97;4.20;;;35.30;44.30;;;;;;4422612;28;656917;-68
2021/06/18 14:19:48;;;;;;;6.22;4.10;;;35.30;45.20;;;;;;4433668;28;656719;-68
2021/06/18 14:22:35;;;;;;;9.97;3.77;;;35.50;46.50;;;;;;4420369;28;656932;-68
2021/06/18 14:25:23;;;;;;;7.85;3.80;;;35.70;44.60;;;;;;4422885;28;657091;-68
2021/06/18 14:28:10;;;;;;;9.07;3.90;;;35.60;44.20;;;;;;4425520;28;657880;-68
2021/06/18 14:30:59;;;;;;;8.98;4.25;;;35.80;45.70;;;;;;4399296;28;656588;-68